EDT,Max TemperatureF,Mean TemperatureF,Min TemperatureF,Max Dew PointF,MeanDew PointF,Min DewpointF,Max Humidity, Mean Humidity, Min Humidity, Max Sea Level PressureIn, Mean Sea Level PressureIn, Min Sea Level PressureIn, Max VisibilityMiles, Mean VisibilityMiles, Min VisibilityMiles, Max Wind SpeedMPH, Mean Wind SpeedMPH, Max Gust SpeedMPH,PrecipitationIn, CloudCover, Events, WindDirDegrees
2013-9-1,88,79,69,74,71,68,100,80,59,29.95,29.89,29.82,9,4,0,18,6,23,T,4,Fog,223
2013-9-2,87,80,72,73,71,69,100,81,61,29.92,29.86,29.81,10,6,2,9,4,13,T,4,,246
2013-9-3,88,78,67,70,66,63,97,71,45,29.96,29.88,29.83,10,10,7,15,3,18,0.02,2,Rain-Thunderstorm,317
2013-9-4,85,77,69,68,65,62,90,69,48,30.08,30.03,29.96,10,9,6,12,3,14,0.00,2,,64
2013-9-5,89,78,67,68,65,60,93,68,43,30.12,30.07,30.04,10,9,4,7,1,9,0.00,0,,44
2013-9-6,84,76,67,64,61,60,87,66,44,30.17,30.11,30.06,10,10,7,14,5,21,0.00,0,,35
2013-9-7,84,74,64,66,63,62,93,72,51,30.13,30.06,29.99,10,9,6,10,3,15,0.00,2,,269
2013-9-8,87,76,64,69,65,63,100,74,48,30.00,29.97,29.93,10,8,2,8,1,10,0.00,1,,11
2013-9-9,88,78,67,69,67,65,93,70,46,30.12,30.06,29.99,10,8,5,12,3,16,0.00,1,,60
2013-9-10,87,77,67,71,67,65,100,75,50,30.23,30.18,30.12,10,8,3,9,2,13,0.00,0,,168
2013-9-11,88,77,66,69,66,61,100,70,40,30.21,30.15,30.08,10,8,3,12,3,17,0.00,0,,187
2013-9-12,91,80,68,70,68,65,97,71,44,30.07,29.98,29.85,10,8,2,6,3,24,T,1,Thunderstorm,258
2013-9-13,86,76,65,69,60,50,93,65,37,29.88,29.83,29.78,10,10,9,14,6,26,0.00,1,,360
2013-9-14,79,68,56,57,53,49,84,64,43,30.09,30.00,29.90,10,10,10,16,7,22,0.00,1,,32
2013-9-15,80,70,59,65,60,56,93,76,58,30.22,30.15,30.09,10,10,8,10,3,13,0.00,4,,36
2013-9-16,86,75,64,66,62,59,93,68,43,30.13,30.10,30.04,10,9,5,9,3,13,0.00,3,,14
2013-9-17,74,70,65,60,57,55,78,68,57,30.28,30.21,30.13,10,10,8,15,9,21,0.00,7,,36
2013-9-18,75,68,60,60,56,54,84,69,53,30.30,30.22,30.16,10,10,7,9,4,14,0.00,6,,38
2013-9-19,82,71,59,65,61,58,100,76,51,30.17,30.12,30.07,10,10,6,8,2,10,0.00,2,,123
2013-9-20,86,74,62,66,63,61,100,72,44,30.07,30.00,29.91,10,9,5,12,5,15,0.00,1,,222
2013-9-21,74,69,64,70,67,63,100,92,84,29.91,29.75,29.65,10,5,1,16,6,22,1.36,7,Rain,174
2013-9-22,79,69,58,61,58,55,100,74,48,29.89,29.81,29.73,10,10,9,14,4,16,0.00,2,,37
2013-9-23,76,69,61,59,57,54,90,72,54,30.04,29.99,29.90,10,10,8,13,5,15,0.00,5,,63
2013-9-24,75,67,59,63,60,58,97,79,61,30.06,30.00,29.93,10,9,6,9,2,12,T,6,Rain,167
2013-9-25,69,66,62,63,62,59,100,88,76,29.95,29.90,29.86,10,5,0,12,5,14,1.12,8,Fog-Rain,106
2013-9-26,76,68,59,61,58,53,97,76,54,30.02,29.94,29.88,10,8,4,12,5,15,0.00,4,,28
2013-9-27,77,67,57,57,55,53,86,66,46,30.16,30.09,30.02,10,10,8,14,7,18,0.00,1,,38
2013-9-28,73,65,56,56,54,52,93,71,49,30.25,30.18,30.14,10,10,10,13,5,16,0.00,2,,41
2013-9-29,74,64,54,57,54,52,86,70,53,30.17,30.11,30.03,10,10,10,8,3,10,0.00,5,,33
2013-9-30,76,67,57,58,57,54,93,72,50,30.09,30.04,29.99,10,10,7,7,2,10,0.00,3,,54